createdAt,value
2018-09-22T00:03:23.792Z,14.40
2018-09-22T00:05:52.230Z,14.50
2018-09-22T00:08:20.751Z,14.50
2018-09-22T00:10:49.317Z,14.50
2018-09-22T00:13:17.812Z,14.40
2018-09-22T00:15:46.292Z,14.50
2018-09-22T00:18:14.784Z,14.50
2018-09-22T00:20:43.252Z,14.50
2018-09-22T00:23:11.761Z,14.50
2018-09-22T00:25:40.187Z,14.50
2018-09-22T00:28:08.692Z,14.60
2018-09-22T00:30:37.194Z,14.60
2018-09-22T00:33:06.170Z,14.60
2018-09-22T00:35:34.663Z,14.60
2018-09-22T00:38:03.114Z,14.60
2018-09-22T00:40:31.595Z,14.60
2018-09-22T00:43:00.134Z,14.60
2018-09-22T00:45:28.613Z,14.60
2018-09-22T00:47:57.024Z,14.60
2018-09-22T00:50:25.550Z,14.60
2018-09-22T00:52:54.055Z,14.70
2018-09-22T00:55:22.493Z,14.60
2018-09-22T00:57:50.999Z,14.60
2018-09-22T01:00:19.474Z,14.50
2018-09-22T01:02:47.953Z,14.50
2018-09-22T01:05:16.440Z,14.60
2018-09-22T01:07:44.905Z,14.60
2018-09-22T01:10:13.384Z,14.50
2018-09-22T01:12:41.865Z,14.50
2018-09-22T01:15:10.410Z,14.50
2018-09-22T01:17:38.925Z,14.40
2018-09-22T01:20:07.449Z,14.40
2018-09-22T01:22:35.884Z,14.40
2018-09-22T01:25:04.729Z,14.30
2018-09-22T01:27:33.205Z,14.30
2018-09-22T01:30:01.655Z,14.20
2018-09-22T01:32:30.108Z,14.20
2018-09-22T01:34:58.614Z,14.10
2018-09-22T01:37:27.089Z,14.10
2018-09-22T01:39:55.656Z,14.00
2018-09-22T01:42:24.132Z,14.00
2018-09-22T01:44:52.649Z,14.00
2018-09-22T01:47:21.111Z,14.00
2018-09-22T01:49:49.713Z,13.90
2018-09-22T01:52:18.184Z,13.90
2018-09-22T01:54:46.670Z,13.90
2018-09-22T01:57:15.129Z,13.80
2018-09-22T01:59:43.636Z,13.80
2018-09-22T02:02:12.105Z,13.70
2018-09-22T02:04:40.721Z,13.80
2018-09-22T02:07:09.188Z,13.70
2018-09-22T02:09:37.669Z,13.70
2018-09-22T02:12:06.141Z,13.70
2018-09-22T02:14:34.634Z,13.60
2018-09-22T02:17:03.133Z,13.60
2018-09-22T02:19:31.605Z,13.60
2018-09-22T02:22:00.062Z,13.70
2018-09-22T02:24:28.558Z,13.60
2018-09-22T02:26:57.169Z,13.60
2018-09-22T02:29:25.813Z,13.60
2018-09-22T02:31:54.618Z,13.60
2018-09-22T02:34:23.116Z,13.60
2018-09-22T02:36:51.582Z,13.60
2018-09-22T02:39:20.039Z,13.50
2018-09-22T02:41:49.464Z,13.50
2018-09-22T02:44:17.929Z,13.50
2018-09-22T02:46:46.429Z,13.50
2018-09-22T02:49:14.936Z,13.50
2018-09-22T02:51:43.380Z,13.50
2018-09-22T02:54:11.856Z,13.50
2018-09-22T02:56:41.440Z,13.50
2018-09-22T02:59:09.977Z,13.50
2018-09-22T03:01:38.481Z,13.50
2018-09-22T03:04:06.981Z,13.50
2018-09-22T03:06:35.516Z,13.50
2018-09-22T03:09:04.827Z,13.50
2018-09-22T03:11:33.274Z,13.50
2018-09-22T03:14:01.770Z,13.50
2018-09-22T03:16:30.237Z,13.50
2018-09-22T03:18:58.673Z,13.50
2018-09-22T03:21:27.121Z,13.50
2018-09-22T03:23:55.591Z,13.60
2018-09-22T03:26:24.197Z,13.60
2018-09-22T03:28:52.661Z,13.60
2018-09-22T03:31:21.176Z,13.60
2018-09-22T03:33:49.629Z,13.60
2018-09-22T03:36:18.188Z,13.60
2018-09-22T03:38:46.691Z,13.60
2018-09-22T03:41:15.207Z,13.60
2018-09-22T03:43:43.654Z,13.50
2018-09-22T03:46:12.156Z,13.50
2018-09-22T03:48:40.744Z,13.50
2018-09-22T03:51:09.186Z,13.50
2018-09-22T03:53:37.691Z,13.50
2018-09-22T03:56:06.166Z,13.50
2018-09-22T03:58:34.642Z,13.50
2018-09-22T04:01:03.157Z,13.40
2018-09-22T04:03:31.600Z,13.40
2018-09-22T04:06:00.083Z,13.40
2018-09-22T04:08:28.653Z,13.40
2018-09-22T04:10:57.132Z,13.40
2018-09-22T04:13:25.679Z,13.40
2018-09-22T04:15:54.108Z,13.40
2018-09-22T04:18:22.572Z,13.40
2018-09-22T04:20:51.083Z,13.40
2018-09-22T04:23:19.544Z,13.40
2018-09-22T04:25:48.034Z,13.40
2018-09-22T04:28:16.506Z,13.40
2018-09-22T04:30:45.011Z,13.40
2018-09-22T04:33:13.514Z,13.40
2018-09-22T04:35:42.104Z,13.40
2018-09-22T04:38:10.662Z,13.40
2018-09-22T04:40:39.177Z,13.30
2018-09-22T04:43:07.601Z,13.30
2018-09-22T04:45:36.116Z,13.40
2018-09-22T04:48:04.612Z,13.30
2018-09-22T04:50:33.065Z,13.30
2018-09-22T04:53:01.545Z,13.30
2018-09-22T04:55:30.090Z,13.30
2018-09-22T04:57:58.609Z,13.30
2018-09-22T05:00:27.080Z,13.20
2018-09-22T05:02:56.612Z,13.20
2018-09-22T05:05:25.074Z,13.30
2018-09-22T05:07:53.590Z,13.30
2018-09-22T05:10:22.048Z,13.30
2018-09-22T05:12:50.535Z,13.30
2018-09-22T05:15:19.049Z,13.20
2018-09-22T05:17:47.487Z,13.30
2018-09-22T05:20:15.979Z,13.30
2018-09-22T05:29:48.738Z,13.30
2018-09-22T05:32:17.182Z,13.20
2018-09-22T05:34:45.640Z,13.20
2018-09-22T05:37:14.171Z,13.20
2018-09-22T05:39:42.628Z,13.20
2018-09-22T05:42:11.125Z,13.20
2018-09-22T05:44:39.593Z,13.30
2018-09-22T05:47:08.087Z,13.20
2018-09-22T05:49:36.547Z,13.30
2018-09-22T05:52:05.051Z,13.40
2018-09-22T05:54:33.721Z,13.40
2018-09-22T05:57:02.461Z,13.40
2018-09-22T05:59:30.902Z,13.40
2018-09-22T06:01:59.369Z,13.40
2018-09-22T06:04:27.980Z,13.40
2018-09-22T06:06:56.421Z,13.50
2018-09-22T06:09:25.855Z,13.50
2018-09-22T06:11:54.317Z,13.50
2018-09-22T06:14:22.805Z,13.50
2018-09-22T06:16:51.314Z,13.60
2018-09-22T06:19:19.802Z,13.60
2018-09-22T06:21:48.258Z,13.60
2018-09-22T06:24:16.769Z,13.70
2018-09-22T06:26:45.222Z,13.60
2018-09-22T06:29:13.729Z,13.70
2018-09-22T06:31:42.276Z,13.70
2018-09-22T06:34:10.753Z,13.70
2018-09-22T06:36:39.263Z,13.80
2018-09-22T06:39:09.571Z,13.80
2018-09-22T06:41:38.088Z,13.80
2018-09-22T06:44:06.557Z,13.80
2018-09-22T06:46:35.072Z,13.80
2018-09-22T06:49:03.604Z,13.80
2018-09-22T06:51:32.089Z,13.90
2018-09-22T06:54:00.569Z,13.90
2018-09-22T06:56:29.061Z,13.90
2018-09-22T06:58:57.590Z,13.90
2018-09-22T07:01:26.134Z,13.90
2018-09-22T07:03:54.651Z,13.90
2018-09-22T07:06:23.253Z,13.90
2018-09-22T07:08:52.357Z,13.90
2018-09-22T07:11:22.104Z,13.90
2018-09-22T07:13:50.846Z,14.00
2018-09-22T07:16:19.373Z,14.10
2018-09-22T07:18:47.893Z,14.10
2018-09-22T07:21:16.304Z,14.10
2018-09-22T07:23:44.954Z,14.10
2018-09-22T07:26:13.384Z,14.30
2018-09-22T07:28:42.142Z,14.40
2018-09-22T07:31:10.838Z,14.40
2018-09-22T07:33:39.329Z,14.40
2018-09-22T07:36:07.876Z,14.40
2018-09-22T07:38:36.400Z,14.40
2018-09-22T07:41:04.955Z,14.60
2018-09-22T07:43:33.521Z,14.60
2018-09-22T07:46:02.242Z,14.50
2018-09-22T07:48:30.758Z,14.60
2018-09-22T07:50:59.221Z,14.60
2018-09-22T07:53:27.716Z,14.70
2018-09-22T07:55:56.212Z,14.80
2018-09-22T07:58:24.669Z,14.80
2018-09-22T08:00:53.153Z,14.90
2018-09-22T08:03:21.671Z,14.80
2018-09-22T08:05:50.145Z,14.90
2018-09-22T08:08:18.699Z,14.90
2018-09-22T08:10:47.250Z,15.00
2018-09-22T08:13:16.203Z,15.20
2018-09-22T08:15:45.054Z,15.30
2018-09-22T08:18:13.844Z,15.30
2018-09-22T08:20:42.406Z,15.50
2018-09-22T08:23:11.907Z,15.60
2018-09-22T08:25:41.087Z,15.60
2018-09-22T08:28:10.997Z,15.60
2018-09-22T08:30:39.744Z,15.70
2018-09-22T08:33:08.276Z,15.70
2018-09-22T08:35:36.816Z,15.90
2018-09-22T08:38:05.357Z,15.90
2018-09-22T08:40:33.873Z,15.90
2018-09-22T08:43:02.337Z,15.90
2018-09-22T08:45:31.197Z,15.90
2018-09-22T08:47:59.631Z,15.90
2018-09-22T08:50:28.152Z,16.00
2018-09-22T08:52:56.766Z,16.00
2018-09-22T08:55:25.300Z,15.90
2018-09-22T08:57:53.786Z,15.90
2018-09-22T09:00:22.287Z,15.90
2018-09-22T09:02:50.742Z,15.90
2018-09-22T09:05:19.376Z,16.10
2018-09-22T09:07:47.920Z,16.30
2018-09-22T09:10:16.456Z,16.40
2018-09-22T09:12:45.005Z,16.50
2018-09-22T09:15:13.492Z,16.60
2018-09-22T09:17:41.957Z,16.60
2018-09-22T09:20:10.518Z,16.60
2018-09-22T09:22:39.105Z,16.80
2018-09-22T09:25:07.681Z,16.90
2018-09-22T09:27:36.272Z,17.00
2018-09-22T09:30:04.845Z,17.10
2018-09-22T09:32:33.348Z,17.10
2018-09-22T09:35:01.862Z,17.10
2018-09-22T09:37:30.428Z,17.20
2018-09-22T09:39:59.212Z,17.30
2018-09-22T09:42:27.688Z,17.40
2018-09-22T09:44:56.144Z,17.50
2018-09-22T09:47:24.625Z,17.70
2018-09-22T09:49:53.229Z,17.70
2018-09-22T09:52:21.737Z,17.80
2018-09-22T09:54:50.201Z,17.80
2018-09-22T09:57:18.644Z,17.90
2018-09-22T09:59:47.290Z,17.90
2018-09-22T10:02:16.174Z,17.80
2018-09-22T10:04:44.645Z,17.90
2018-09-22T10:07:13.112Z,18.00
2018-09-22T10:09:41.598Z,18.00
2018-09-22T10:12:10.081Z,18.10
2018-09-22T10:14:38.573Z,18.10
2018-09-22T10:17:07.199Z,18.00
2018-09-22T10:19:35.724Z,17.90
2018-09-22T10:22:04.213Z,18.00
2018-09-22T10:24:32.732Z,18.10
2018-09-22T10:27:01.289Z,18.10
2018-09-22T10:29:29.776Z,18.00
2018-09-22T10:31:58.248Z,18.00
2018-09-22T10:34:26.932Z,18.20
2018-09-22T10:36:55.373Z,18.20
2018-09-22T10:39:23.978Z,18.10
2018-09-22T10:41:52.538Z,18.20
2018-09-22T10:44:22.065Z,18.20
2018-09-22T10:46:50.552Z,18.30
2018-09-22T10:49:18.948Z,18.40
2018-09-22T10:51:47.481Z,18.50
2018-09-22T10:54:15.974Z,18.30
2018-09-22T10:56:44.412Z,18.20
2018-09-22T10:59:12.826Z,18.20
2018-09-22T11:01:42.298Z,18.20
2018-09-22T11:04:10.845Z,18.20
2018-09-22T11:06:39.321Z,18.10
2018-09-22T11:09:08.024Z,18.10
2018-09-22T11:11:36.447Z,18.00
2018-09-22T11:14:05.061Z,17.90
2018-09-22T11:16:33.459Z,17.80
2018-09-22T11:19:01.929Z,17.80
2018-09-22T11:21:30.479Z,17.90
2018-09-22T11:23:58.981Z,18.10
2018-09-22T11:26:27.476Z,18.10
2018-09-22T11:28:55.934Z,18.10
2018-09-22T11:31:24.345Z,18.10
2018-09-22T11:33:52.792Z,18.20
2018-09-22T11:36:21.245Z,18.10
2018-09-22T11:38:49.712Z,18.20
2018-09-22T11:41:18.125Z,18.30
2018-09-22T11:43:46.612Z,18.20
2018-09-22T11:46:15.126Z,18.20
2018-09-22T11:48:43.512Z,18.20
2018-09-22T11:51:11.934Z,18.20
2018-09-22T11:53:40.403Z,18.40
2018-09-22T11:56:08.806Z,18.40
2018-09-22T11:58:37.219Z,18.50
2018-09-22T12:01:05.738Z,18.70
2018-09-22T12:03:34.256Z,18.80
2018-09-22T12:06:02.731Z,19.10
2018-09-22T12:08:31.180Z,19.20
2018-09-22T12:10:59.660Z,19.20
2018-09-22T12:13:28.120Z,19.10
2018-09-22T12:15:56.620Z,18.90
2018-09-22T12:18:25.085Z,19.00
2018-09-22T12:20:53.572Z,18.90
2018-09-22T12:23:22.035Z,19.00
2018-09-22T12:25:50.592Z,19.00
2018-09-22T12:28:19.132Z,19.00
2018-09-22T12:30:47.606Z,19.20
2018-09-22T12:33:16.084Z,19.20
2018-09-22T12:35:44.577Z,19.20
2018-09-22T12:38:13.545Z,19.20
2018-09-22T12:40:42.040Z,19.20
2018-09-22T12:43:10.513Z,19.00
2018-09-22T12:45:39.049Z,19.00
2018-09-22T12:48:08.570Z,19.00
2018-09-22T12:50:37.376Z,19.10
2018-09-22T12:53:06.098Z,19.10
2018-09-22T12:55:34.664Z,19.10
2018-09-22T12:58:03.670Z,19.00
2018-09-22T13:00:32.157Z,18.80
2018-09-22T13:03:00.890Z,18.80
2018-09-22T13:05:29.520Z,18.90
2018-09-22T13:07:58.013Z,18.80
2018-09-22T13:10:27.006Z,18.60
2018-09-22T13:12:55.820Z,18.40
2018-09-22T13:15:24.300Z,18.30
2018-09-22T13:17:52.725Z,18.20
2018-09-22T13:20:21.284Z,18.00
2018-09-22T13:22:49.700Z,17.90
2018-09-22T13:25:19.114Z,17.50
2018-09-22T13:27:47.632Z,17.10
2018-09-22T13:30:16.332Z,17.00
2018-09-22T13:32:44.777Z,16.90
2018-09-22T13:35:13.273Z,16.60
2018-09-22T13:37:41.701Z,16.40
2018-09-22T13:40:11.248Z,15.90
2018-09-22T13:42:39.717Z,15.60
2018-09-22T13:45:08.256Z,15.40
2018-09-22T13:47:36.924Z,15.20
2018-09-22T13:50:05.392Z,14.90
2018-09-22T13:52:34.048Z,14.70
2018-09-22T13:55:02.641Z,14.40
2018-09-22T13:57:31.081Z,14.30
2018-09-22T13:59:59.612Z,14.40
2018-09-22T14:02:28.488Z,14.30
2018-09-22T14:04:56.953Z,14.30
2018-09-22T14:07:25.734Z,14.30
2018-09-22T14:09:54.296Z,14.20
2018-09-22T14:12:22.709Z,14.10
2018-09-22T14:14:51.209Z,14.00
2018-09-22T14:17:19.708Z,13.90
2018-09-22T14:19:48.162Z,13.90
2018-09-22T14:22:16.613Z,13.80
2018-09-22T14:24:45.154Z,13.80
2018-09-22T14:27:13.685Z,13.90
2018-09-22T14:29:42.129Z,13.90
2018-09-22T14:32:10.605Z,14.00
2018-09-22T14:34:39.084Z,14.00
2018-09-22T14:37:07.664Z,14.10
2018-09-22T14:39:36.165Z,14.10
2018-09-22T14:42:04.693Z,14.10
2018-09-22T14:44:33.329Z,14.00
2018-09-22T14:47:02.033Z,14.10
2018-09-22T14:49:30.606Z,14.10
2018-09-22T14:51:59.169Z,14.10
2018-09-22T14:54:27.650Z,14.10
2018-09-22T14:56:56.205Z,14.10
2018-09-22T14:59:25.282Z,14.20
2018-09-22T15:01:54.158Z,14.20
2018-09-22T15:04:22.672Z,14.30
2018-09-22T15:06:51.260Z,14.40
2018-09-22T15:09:19.785Z,14.30
2018-09-22T15:11:48.294Z,14.20
2018-09-22T15:14:17.222Z,14.30
2018-09-22T15:16:45.767Z,14.30
2018-09-22T15:19:14.401Z,14.20
2018-09-22T15:21:43.228Z,14.30
2018-09-22T15:24:11.781Z,14.40
2018-09-22T15:26:41.496Z,14.30
2018-09-22T15:29:10.200Z,14.30
2018-09-22T15:31:38.713Z,14.20
2018-09-22T15:34:07.208Z,14.20
2018-09-22T15:36:35.788Z,14.30
2018-09-22T15:39:06.559Z,14.30
2018-09-22T15:41:35.108Z,14.30
2018-09-22T15:44:04.055Z,14.30
2018-09-22T15:46:32.489Z,14.30
2018-09-22T15:49:01.218Z,14.30
2018-09-22T15:51:29.741Z,14.20
2018-09-22T15:53:58.245Z,14.40
2018-09-22T15:56:26.728Z,14.40
2018-09-22T15:58:55.280Z,14.40
2018-09-22T16:01:23.840Z,14.50
2018-09-22T16:03:52.400Z,14.40
2018-09-22T16:06:20.933Z,14.40
2018-09-22T16:08:49.549Z,14.40
2018-09-22T16:11:18.098Z,14.40
2018-09-22T16:13:46.956Z,14.40
2018-09-22T16:16:15.614Z,14.40
2018-09-22T16:18:44.111Z,14.40
2018-09-22T16:21:12.680Z,14.40
2018-09-22T16:23:41.464Z,14.40
2018-09-22T16:26:10.398Z,14.30
2018-09-22T16:28:39.779Z,14.30
2018-09-22T16:31:09.006Z,14.30
2018-09-22T16:33:37.597Z,14.20
2018-09-22T16:36:07.214Z,14.20
2018-09-22T16:38:36.072Z,14.10
2018-09-22T16:41:04.611Z,14.10
2018-09-22T16:43:33.159Z,14.10
2018-09-22T16:46:01.810Z,14.10
2018-09-22T16:48:30.326Z,14.10
2018-09-22T16:50:58.924Z,14.10
2018-09-22T16:53:27.532Z,14.10
2018-09-22T16:55:55.992Z,14.10
2018-09-22T16:58:24.619Z,14.10
2018-09-22T17:00:53.116Z,14.10
2018-09-22T17:03:21.641Z,14.10
2018-09-22T17:05:50.571Z,14.10
2018-09-22T17:08:19.156Z,14.10
2018-09-22T17:11:50.735Z,14.00
2018-09-22T17:14:19.260Z,14.00
2018-09-22T17:16:47.873Z,14.00
2018-09-22T17:19:16.504Z,14.00
2018-09-22T17:21:45.090Z,14.00
2018-09-22T17:24:13.576Z,14.00
2018-09-22T17:26:42.152Z,14.00
2018-09-22T17:29:10.605Z,14.00
2018-09-22T17:31:39.193Z,13.90
2018-09-22T17:34:07.755Z,13.90
2018-09-22T17:36:36.257Z,13.80
2018-09-22T17:39:07.899Z,13.80
2018-09-22T17:41:37.567Z,13.80
2018-09-22T17:44:06.122Z,13.90
2018-09-22T17:46:34.588Z,13.80
2018-09-22T17:49:03.099Z,13.80
2018-09-22T17:51:31.867Z,13.80
2018-09-22T17:54:00.347Z,13.80
2018-09-22T17:56:28.828Z,13.80
2018-09-22T17:58:57.328Z,13.80
2018-09-22T18:01:26.093Z,13.70
2018-09-22T18:03:54.587Z,13.70
2018-09-22T18:06:23.173Z,13.70
2018-09-22T18:08:51.624Z,13.70
2018-09-22T18:11:20.269Z,13.70
2018-09-22T18:13:48.900Z,13.70
2018-09-22T18:16:17.665Z,13.70
2018-09-22T18:18:46.238Z,13.60
2018-09-22T18:21:15.008Z,13.60
2018-09-22T18:23:43.572Z,13.60
2018-09-22T18:26:12.118Z,13.60
2018-09-22T18:28:40.783Z,13.70
2018-09-22T18:31:09.376Z,13.60
2018-09-22T18:33:37.949Z,13.60
2018-09-22T18:36:06.641Z,13.60
2018-09-22T18:38:35.369Z,13.60
2018-09-22T18:41:04.010Z,13.60
2018-09-22T18:43:32.579Z,13.60
2018-09-22T18:46:01.161Z,13.60
2018-09-22T18:48:29.825Z,13.60
2018-09-22T18:50:58.320Z,13.60
2018-09-22T18:53:26.955Z,13.60
2018-09-22T18:55:55.440Z,13.60
2018-09-22T18:58:23.993Z,13.60
2018-09-22T19:00:52.533Z,13.60
2018-09-22T19:03:21.026Z,13.60
2018-09-22T19:05:49.538Z,13.50
2018-09-22T19:08:18.055Z,13.60
2018-09-22T19:10:46.636Z,13.60
2018-09-22T19:13:19.643Z,13.50
2018-09-22T19:15:51.712Z,13.50
2018-09-22T19:18:25.797Z,13.50
2018-09-22T19:20:58.780Z,13.50
2018-09-22T19:23:36.792Z,13.50
2018-09-22T19:26:15.726Z,13.40
2018-09-22T19:29:47.879Z,13.40
2018-09-22T19:32:37.590Z,13.30
2018-09-22T19:35:10.671Z,13.30
2018-09-22T19:37:44.705Z,13.30
2018-09-22T19:40:31.777Z,13.30
2018-09-22T19:44:03.682Z,13.20
2018-09-22T19:46:43.289Z,13.20
2018-09-22T19:49:16.942Z,13.20
2018-09-22T19:51:50.273Z,13.20
2018-09-22T19:54:18.883Z,13.20
2018-09-22T19:56:47.793Z,13.20
2018-09-22T19:59:16.377Z,13.20
2018-09-22T20:01:44.993Z,13.20
2018-09-22T20:04:14.660Z,13.20
2018-09-22T20:06:43.177Z,13.10
2018-09-22T20:09:11.852Z,13.20
2018-09-22T20:11:40.366Z,13.20
2018-09-22T20:14:09.073Z,13.20
2018-09-22T20:16:37.655Z,13.20
2018-09-22T20:19:06.237Z,13.20
2018-09-22T20:21:35.788Z,13.20
2018-09-22T20:24:05.059Z,13.20
2018-09-22T20:26:34.249Z,13.10
2018-09-22T20:29:04.029Z,13.10
2018-09-22T20:31:33.330Z,13.10
2018-09-22T20:34:01.935Z,13.20
2018-09-22T20:36:30.535Z,13.20
2018-09-22T20:38:59.508Z,13.20
2018-09-22T20:41:28.184Z,13.20
2018-09-22T20:43:56.648Z,13.10
2018-09-22T20:46:25.177Z,13.00
2018-09-22T20:48:53.735Z,13.00
2018-09-22T20:51:22.248Z,13.00
2018-09-22T20:53:50.816Z,13.00
2018-09-22T20:56:19.344Z,13.00
2018-09-22T20:58:47.837Z,13.00
2018-09-22T21:01:16.370Z,13.00
2018-09-22T21:03:44.884Z,13.00
2018-09-22T21:06:13.413Z,13.00
2018-09-22T21:08:41.845Z,13.00
2018-09-22T21:11:10.329Z,13.00
2018-09-22T21:13:38.817Z,12.90
2018-09-22T21:16:07.341Z,12.90
2018-09-22T21:18:35.804Z,12.90
2018-09-22T21:21:04.297Z,12.90
2018-09-22T21:23:32.769Z,12.90
2018-09-22T21:26:01.205Z,12.90
2018-09-22T21:28:29.713Z,13.00
2018-09-22T21:30:58.187Z,13.00
2018-09-22T21:40:23.777Z,13.00
2018-09-22T21:42:52.298Z,13.00
2018-09-22T21:45:20.871Z,13.00
2018-09-22T21:47:49.385Z,13.00
2018-09-22T21:50:19.026Z,13.00
2018-09-22T21:52:47.488Z,13.00
2018-09-22T21:55:16.038Z,13.00
2018-09-22T21:57:44.549Z,13.00
2018-09-22T22:00:13.122Z,12.90
2018-09-22T22:02:41.603Z,12.90
2018-09-22T22:05:10.126Z,12.90
2018-09-22T22:07:38.564Z,12.90
2018-09-22T22:10:08.129Z,12.90
2018-09-22T22:12:36.557Z,12.80
2018-09-22T22:15:05.324Z,12.80
2018-09-22T22:17:33.868Z,12.80
2018-09-22T22:20:02.325Z,12.80
2018-09-22T22:22:30.804Z,12.80
2018-09-22T22:24:59.388Z,12.80
2018-09-22T22:27:27.900Z,12.70
2018-09-22T22:29:56.352Z,12.70
2018-09-22T22:32:24.860Z,12.70
2018-09-22T22:34:53.313Z,12.70
2018-09-22T22:37:21.791Z,12.70
2018-09-22T22:39:50.317Z,12.60
2018-09-22T22:42:18.906Z,12.60
2018-09-22T22:44:47.376Z,12.60
2018-09-22T22:47:15.819Z,12.60
2018-09-22T22:49:44.303Z,12.60
2018-09-22T22:52:12.894Z,12.60
2018-09-22T22:54:41.377Z,12.60
2018-09-22T22:57:09.846Z,12.60
2018-09-22T22:59:38.337Z,12.60
2018-09-22T23:02:06.865Z,12.50
2018-09-22T23:04:35.313Z,12.60
2018-09-22T23:07:03.788Z,12.60
2018-09-22T23:09:32.272Z,12.60
2018-09-22T23:12:00.988Z,12.60
2018-09-22T23:14:29.525Z,12.70
2018-09-22T23:16:59.026Z,12.70
2018-09-22T23:19:27.760Z,12.60
2018-09-22T23:21:56.230Z,12.50
2018-09-22T23:24:24.708Z,12.50
2018-09-22T23:26:53.176Z,12.50
2018-09-22T23:29:21.661Z,12.50
2018-09-22T23:31:50.150Z,12.50
2018-09-22T23:34:18.660Z,12.50
2018-09-22T23:36:47.141Z,12.50
2018-09-22T23:39:15.881Z,12.50
2018-09-22T23:41:44.385Z,12.50
2018-09-22T23:44:12.848Z,12.60
2018-09-22T23:46:41.377Z,12.60
2018-09-22T23:49:10.033Z,12.50
2018-09-22T23:51:38.508Z,12.50
2018-09-22T23:54:07.048Z,12.40
2018-09-22T23:56:35.557Z,12.40
2018-09-22T23:59:05.093Z,12.40
